createdAt,value
2022-12-25T00:00:42.652Z,96630.16
2022-12-25T00:03:09.876Z,96626.19
2022-12-25T00:05:39.031Z,96632.25
2022-12-25T00:08:07.231Z,96619.72
2022-12-25T00:10:35.008Z,96596.69
2022-12-25T00:13:04.234Z,96599.72
2022-12-25T00:15:31.042Z,96597.69
2022-12-25T00:17:57.712Z,96597.47
2022-12-25T00:20:24.412Z,96593.16
2022-12-25T00:22:51.202Z,96589.81
2022-12-25T00:25:17.855Z,96586.63
2022-12-25T00:27:44.586Z,96581.34
2022-12-25T00:30:12.503Z,96591.16
2022-12-25T00:32:39.478Z,96582.34
2022-12-25T00:35:06.659Z,96568.22
2022-12-25T00:37:33.376Z,96556.91
2022-12-25T00:40:00.133Z,96550.66
2022-12-25T00:42:28.540Z,96545.78
2022-12-25T00:44:55.217Z,96551.38
2022-12-25T00:47:22.169Z,96548.53
2022-12-25T00:49:48.862Z,96542.13
2022-12-25T00:52:15.563Z,96543.22
2022-12-25T00:54:42.314Z,96532.97
2022-12-25T00:57:09.281Z,96533.09
2022-12-25T00:59:36.239Z,96541.66
2022-12-25T01:02:21.812Z,96544.81
2022-12-25T01:04:49.410Z,96550.00
2022-12-25T01:07:19.426Z,96551.38
2022-12-25T01:10:05.617Z,96563.88
2022-12-25T01:12:35.092Z,96562.97
2022-12-25T01:15:01.753Z,96566.63
2022-12-25T01:17:28.479Z,96559.59
2022-12-25T01:19:55.325Z,96565.56
2022-12-25T01:22:22.110Z,96563.09
2022-12-25T01:24:48.864Z,96559.44
2022-12-25T01:27:15.638Z,96553.78
2022-12-25T01:29:42.444Z,96563.91
2022-12-25T01:32:09.191Z,96569.63
2022-12-25T01:34:35.967Z,96553.09
2022-12-25T01:37:02.654Z,96557.41
2022-12-25T01:39:29.535Z,96566.56
2022-12-25T01:41:56.390Z,96558.91
2022-12-25T01:44:35.250Z,96568.09
2022-12-25T01:47:05.965Z,96559.44
2022-12-25T01:49:36.100Z,96545.06
2022-12-25T01:52:10.834Z,96548.41
2022-12-25T01:54:41.820Z,96548.78
2022-12-25T01:57:14.836Z,96548.22
2022-12-25T01:59:42.028Z,96557.97
2022-12-25T02:02:08.929Z,96551.56
2022-12-25T02:04:45.723Z,96540.59
2022-12-25T02:07:17.989Z,96541.78
2022-12-25T02:09:45.674Z,96517.66
2022-12-25T02:12:22.188Z,96519.13
2022-12-25T02:14:51.396Z,96515.28
2022-12-25T02:17:39.620Z,96521.38
2022-12-25T02:20:38.179Z,96523.00
2022-12-25T02:23:05.544Z,96531.75
2022-12-25T02:26:03.351Z,96525.72
2022-12-25T02:28:46.050Z,96537.28
2022-12-25T02:31:41.969Z,96525.22
2022-12-25T02:34:21.783Z,96529.97
2022-12-25T02:37:14.300Z,96534.59
2022-12-25T02:39:59.143Z,96537.47
2022-12-25T02:42:51.412Z,96548.03
2022-12-25T02:45:42.915Z,96556.53
2022-12-25T02:48:31.165Z,96560.22
2022-12-25T02:51:20.107Z,96573.97
2022-12-25T02:54:07.482Z,96573.53
2022-12-25T02:56:55.384Z,96571.53
2022-12-25T02:59:41.586Z,96581.91
2022-12-25T03:02:27.622Z,96586.34
2022-12-25T03:05:15.512Z,96579.63
2022-12-25T03:07:44.146Z,96578.84
2022-12-25T03:10:33.359Z,96587.31
2022-12-25T03:13:20.266Z,96586.63
2022-12-25T03:16:06.660Z,96576.56
2022-12-25T03:18:34.874Z,96569.44
2022-12-25T03:21:20.237Z,96561.50
2022-12-25T03:24:11.052Z,96562.13
2022-12-25T03:26:56.682Z,96552.41
2022-12-25T03:29:50.386Z,96543.22
2022-12-25T03:32:19.790Z,96543.59
2022-12-25T03:35:23.319Z,96547.09
2022-12-25T03:38:31.397Z,96546.06
2022-12-25T03:41:44.457Z,96530.56
2022-12-25T03:44:52.801Z,96539.28
2022-12-25T03:47:43.542Z,96531.06
2022-12-25T03:51:06.413Z,96526.34
2022-12-25T03:54:00.200Z,96526.34
2022-12-25T03:56:47.095Z,96537.00
2022-12-25T03:59:45.941Z,96537.75
2022-12-25T04:02:31.530Z,96524.50
2022-12-25T04:05:16.940Z,96510.31
2022-12-25T04:08:02.538Z,96511.53
2022-12-25T04:10:47.823Z,96506.06
2022-12-25T04:13:34.078Z,96506.81
2022-12-25T04:16:19.483Z,96508.81
2022-12-25T04:19:04.938Z,96507.63
2022-12-25T04:21:57.998Z,96516.78
2022-12-25T04:24:43.360Z,96521.34
2022-12-25T04:27:28.907Z,96513.72
2022-12-25T04:30:14.094Z,96517.69
2022-12-25T04:32:59.477Z,96510.88
2022-12-25T04:35:44.687Z,96504.50
2022-12-25T04:38:11.452Z,96497.22
2022-12-25T04:40:38.103Z,96496.00
2022-12-25T04:43:04.923Z,96489.63
2022-12-25T04:45:31.706Z,96494.94
2022-12-25T04:48:01.211Z,96481.97
2022-12-25T04:50:27.931Z,96489.56
2022-12-25T04:52:54.682Z,96491.06
2022-12-25T04:55:21.451Z,96498.84
2022-12-25T04:57:48.215Z,96497.63
2022-12-25T05:00:15.232Z,96499.19
2022-12-25T05:02:42.104Z,96497.19
2022-12-25T05:05:09.095Z,96497.59
2022-12-25T05:07:35.763Z,96497.94
2022-12-25T05:10:02.894Z,96501.28
2022-12-25T05:12:29.519Z,96509.06
2022-12-25T05:14:56.252Z,96508.41
2022-12-25T05:17:23.087Z,96501.28
2022-12-25T05:19:49.735Z,96509.06
2022-12-25T05:22:16.446Z,96506.31
2022-12-25T05:24:43.134Z,96506.63
2022-12-25T05:27:09.876Z,96514.25
2022-12-25T05:29:36.556Z,96518.81
2022-12-25T05:32:03.444Z,96511.75
2022-12-25T05:34:30.136Z,96505.34
2022-12-25T05:36:57.219Z,96496.97
2022-12-25T05:39:24.363Z,96489.03
2022-12-25T05:41:51.106Z,96495.09
2022-12-25T05:44:17.863Z,96494.97
2022-12-25T05:46:44.573Z,96494.81
2022-12-25T05:49:11.421Z,96494.59
2022-12-25T05:51:38.074Z,96490.16
2022-12-25T05:54:04.915Z,96481.19
2022-12-25T05:56:31.675Z,96481.19
2022-12-25T05:58:58.425Z,96475.66
2022-12-25T06:01:28.290Z,96478.72
2022-12-25T06:03:55.302Z,96473.06
2022-12-25T06:06:21.983Z,96470.19
2022-12-25T06:08:48.716Z,96469.53
2022-12-25T06:11:15.593Z,96469.25
2022-12-25T06:13:42.633Z,96461.47
2022-12-25T06:16:11.340Z,96466.34
2022-12-25T06:18:44.130Z,96462.22
2022-12-25T06:21:12.679Z,96467.72
2022-12-25T06:23:39.921Z,96474.09
2022-12-25T06:26:08.830Z,96460.38
2022-12-25T06:28:36.048Z,96459.19
2022-12-25T06:31:08.322Z,96456.16
2022-12-25T06:33:35.872Z,96448.06
2022-12-25T06:36:11.896Z,96446.88
2022-12-25T06:38:38.756Z,96441.22
2022-12-25T06:41:11.693Z,96441.34
2022-12-25T06:43:38.942Z,96438.34
2022-12-25T06:46:11.859Z,96434.22
2022-12-25T06:48:41.153Z,96435.75
2022-12-25T06:51:08.149Z,96430.25
2022-12-25T06:53:40.411Z,96430.56
2022-12-25T06:56:15.744Z,96436.50
2022-12-25T06:58:44.120Z,96440.19
2022-12-25T07:01:17.833Z,96439.09
2022-12-25T07:03:46.238Z,96441.78
2022-12-25T07:06:13.140Z,96439.53
2022-12-25T07:08:39.932Z,96434.69
2022-12-25T07:11:07.032Z,96430.25
2022-12-25T07:13:33.915Z,96407.25
2022-12-25T14:52:42.195Z,96325.78
2022-12-25T14:55:19.782Z,96330.63
2022-12-25T14:58:06.052Z,96331.28
2022-12-25T15:00:38.667Z,96343.94
2022-12-25T15:03:21.261Z,96333.91
2022-12-25T15:05:58.446Z,96338.88
2022-12-25T15:08:25.242Z,96338.97
2022-12-25T15:11:02.353Z,96338.97
2022-12-25T15:13:31.317Z,96335.25
2022-12-25T15:16:13.205Z,96342.66
2022-12-25T15:18:43.498Z,96336.19
2022-12-25T15:21:20.662Z,96327.41
2022-12-25T15:23:47.547Z,96340.06
2022-12-25T15:26:14.693Z,96340.81
2022-12-25T15:28:41.961Z,96344.91
2022-12-25T15:31:32.214Z,96338.97
2022-12-25T15:34:01.650Z,96332.81
2022-12-25T15:36:29.060Z,96332.00
2022-12-25T15:38:56.189Z,96339.75
2022-12-25T15:41:46.207Z,96330.59
2022-12-25T15:44:13.025Z,96325.97
2022-12-25T15:46:40.088Z,96311.84
2022-12-25T15:49:07.519Z,96314.31
2022-12-25T15:51:34.208Z,96307.84
2022-12-25T15:54:00.826Z,96306.97
2022-12-25T15:56:28.127Z,96309.19
2022-12-25T15:58:55.203Z,96298.19
2022-12-25T16:01:22.192Z,96286.34
2022-12-25T16:03:49.024Z,96288.47
2022-12-25T16:06:17.265Z,96292.72
2022-12-25T16:08:44.361Z,96289.06
2022-12-25T16:11:11.367Z,96292.47
2022-12-25T16:13:38.202Z,96279.25
2022-12-25T16:16:06.924Z,96286.34
2022-12-25T16:18:33.742Z,96284.41
2022-12-25T16:21:00.471Z,96277.88
2022-12-25T16:23:27.349Z,96281.56
2022-12-25T16:25:54.044Z,96285.03
2022-12-25T16:28:20.830Z,96277.28
2022-12-25T16:30:47.819Z,96277.88
2022-12-25T16:33:14.483Z,96288.59
2022-12-25T16:35:41.180Z,96282.03
2022-12-25T16:38:07.867Z,96272.56
2022-12-25T16:40:34.547Z,96269.41
2022-12-25T16:43:01.239Z,96264.00
2022-12-25T16:45:28.155Z,96263.50
2022-12-25T16:47:56.977Z,96251.38
2022-12-25T16:50:23.844Z,96243.19
2022-12-25T16:52:50.425Z,96240.38
2022-12-25T16:55:17.052Z,96235.41
2022-12-25T16:57:43.772Z,96234.16
2022-12-25T17:00:12.517Z,96235.16
2022-12-25T17:02:41.100Z,96223.91
2022-12-25T17:05:08.341Z,96235.81
2022-12-25T17:07:36.169Z,96234.09
2022-12-25T17:10:04.321Z,96237.50
2022-12-25T17:12:30.961Z,96243.97
2022-12-25T17:14:57.635Z,96251.44
2022-12-25T17:17:24.268Z,96271.91
2022-12-25T17:19:50.915Z,96270.41
2022-12-25T17:22:17.559Z,96270.47
2022-12-25T17:24:44.293Z,96287.19
2022-12-25T17:27:11.366Z,96292.50
2022-12-25T17:29:41.134Z,96287.69
2022-12-25T17:32:10.795Z,96293.66
2022-12-25T17:34:38.327Z,96288.84
2022-12-25T17:37:05.243Z,96292.97
2022-12-25T17:39:31.965Z,96289.28
2022-12-25T17:41:58.541Z,96283.91
2022-12-25T17:44:25.591Z,96289.50
2022-12-25T17:46:52.240Z,96289.34
2022-12-25T17:49:20.746Z,96288.94
2022-12-25T17:51:47.977Z,96273.31
2022-12-25T17:54:14.843Z,96280.03
2022-12-25T17:56:41.482Z,96287.50
2022-12-25T17:59:10.574Z,96282.22
2022-12-25T18:01:38.925Z,96293.47
2022-12-25T18:04:06.737Z,96290.81
2022-12-25T18:06:35.573Z,96288.59
2022-12-25T18:09:02.280Z,96293.19
2022-12-25T18:11:33.093Z,96298.00
2022-12-25T18:14:02.346Z,96298.81
2022-12-25T18:16:31.820Z,96295.47
2022-12-25T18:18:59.730Z,96305.25
2022-12-25T18:21:26.563Z,96310.84
2022-12-25T18:23:53.266Z,96309.47
2022-12-25T18:26:20.913Z,96320.66
2022-12-25T18:28:48.732Z,96333.16
2022-12-25T18:31:21.447Z,96338.03
2022-12-25T18:33:49.628Z,96350.22
2022-12-25T18:36:20.253Z,96336.78
2022-12-25T18:38:48.870Z,96331.16
2022-12-25T18:41:16.007Z,96338.94
2022-12-25T18:43:52.630Z,96348.59
2022-12-25T18:46:24.234Z,96365.75
2022-12-25T18:48:51.985Z,96364.81
2022-12-25T18:51:18.817Z,96361.56
2022-12-25T18:53:45.525Z,96353.75
2022-12-25T18:56:15.239Z,96356.16
2022-12-25T18:58:41.864Z,96355.09
2022-12-25T19:01:12.419Z,96345.84
2022-12-25T19:03:39.434Z,96339.97
2022-12-25T19:06:06.307Z,96341.81
2022-12-25T19:08:32.997Z,96326.47
2022-12-25T19:10:59.646Z,96315.47
2022-12-25T19:13:27.319Z,96323.69
2022-12-25T19:15:58.482Z,96319.22
2022-12-25T19:18:25.271Z,96318.81
2022-12-25T19:20:52.164Z,96328.16
2022-12-25T19:23:18.764Z,96329.84
2022-12-25T19:25:45.655Z,96345.09
2022-12-25T19:28:12.612Z,96336.19
2022-12-25T19:30:39.278Z,96330.66
2022-12-25T19:33:07.404Z,96337.47
2022-12-25T19:35:39.694Z,96335.88
2022-12-25T19:38:06.299Z,96342.16
2022-12-25T19:40:37.342Z,96349.03
2022-12-25T19:43:03.983Z,96366.59
2022-12-25T19:45:30.737Z,96357.28
2022-12-25T19:47:58.321Z,96351.31
2022-12-25T19:50:28.678Z,96365.75
2022-12-25T19:52:55.792Z,96364.66
2022-12-25T19:55:22.617Z,96364.75
2022-12-25T19:57:49.814Z,96359.28
2022-12-25T20:00:16.959Z,96370.31
2022-12-25T20:02:43.766Z,96373.16
2022-12-25T20:05:10.546Z,96375.66
2022-12-25T20:07:37.180Z,96389.25
2022-12-25T20:10:03.885Z,96377.00
2022-12-25T20:12:30.507Z,96364.75
2022-12-25T20:14:57.154Z,96370.03
2022-12-25T20:17:23.857Z,96373.91
2022-12-25T20:19:50.543Z,96375.34
2022-12-25T20:22:17.163Z,96383.31
2022-12-25T20:24:43.817Z,96367.69
2022-12-25T20:27:10.397Z,96367.09
2022-12-25T20:29:36.968Z,96367.75
2022-12-25T20:32:03.836Z,96367.88
2022-12-25T20:34:33.393Z,96367.03
2022-12-25T20:37:00.089Z,96365.34
2022-12-25T20:39:26.661Z,96363.72
2022-12-25T20:41:53.354Z,96364.94
2022-12-25T20:44:20.033Z,96361.28
2022-12-25T20:46:46.768Z,96359.72
2022-12-25T20:49:13.588Z,96365.84
2022-12-25T20:51:42.950Z,96361.13
2022-12-25T20:54:10.287Z,96372.88
2022-12-25T20:56:38.385Z,96370.34
2022-12-25T20:59:05.035Z,96383.03
2022-12-25T21:01:31.938Z,96397.41
2022-12-25T21:03:59.403Z,96398.16
2022-12-25T21:06:26.261Z,96393.44
2022-12-25T21:08:53.010Z,96393.97
2022-12-25T21:11:21.569Z,96396.00
2022-12-25T21:13:49.137Z,96400.75
2022-12-25T21:16:18.873Z,96393.59
2022-12-25T21:18:46.409Z,96400.34
2022-12-25T21:21:13.516Z,96401.03
2022-12-25T21:23:40.220Z,96419.41
2022-12-25T21:26:21.310Z,96417.16
2022-12-25T21:28:50.176Z,96416.13
2022-12-25T21:31:17.511Z,96429.06
2022-12-25T21:33:53.350Z,96420.72
2022-12-25T21:36:34.582Z,96428.13
2022-12-25T21:39:04.279Z,96436.44
2022-12-25T21:41:33.248Z,96429.81
2022-12-25T21:44:00.769Z,96423.03
2022-12-25T21:46:27.981Z,96434.94
2022-12-25T21:48:55.129Z,96438.03
2022-12-25T21:51:43.649Z,96435.38
2022-12-25T21:54:12.061Z,96441.13
2022-12-25T21:56:44.939Z,96436.19
2022-12-25T21:59:15.635Z,96435.38
2022-12-25T22:01:43.246Z,96449.97
2022-12-25T22:04:11.503Z,96460.38
2022-12-25T22:06:57.120Z,96474.31
2022-12-25T22:09:24.526Z,96468.19
2022-12-25T22:12:09.519Z,96457.38
2022-12-25T22:14:56.304Z,96453.31
2022-12-25T22:17:43.865Z,96451.81
2022-12-25T22:20:23.524Z,96439.22
2022-12-25T22:22:50.448Z,96454.94
2022-12-25T22:25:18.178Z,96463.69
2022-12-25T22:27:46.040Z,96471.88
2022-12-25T22:30:20.233Z,96484.59
2022-12-25T22:32:47.196Z,96494.06
2022-12-25T22:35:15.498Z,96502.06
2022-12-25T22:37:42.948Z,96517.09
2022-12-25T22:40:12.014Z,96525.75
2022-12-25T22:42:40.317Z,96549.38
2022-12-25T22:45:07.394Z,96564.94
2022-12-25T22:47:34.231Z,96572.94
2022-12-25T22:50:01.076Z,96586.88
2022-12-25T22:52:27.903Z,96600.75
2022-12-25T22:54:54.613Z,96602.00
2022-12-25T22:57:21.333Z,96604.34
2022-12-25T22:59:47.949Z,96606.91
2022-12-25T23:02:14.743Z,96600.41
2022-12-25T23:04:41.595Z,96582.75
2022-12-25T23:07:08.801Z,96604.72
2022-12-25T23:09:35.943Z,96603.19
2022-12-25T23:12:02.590Z,96607.19
2022-12-25T23:14:38.815Z,96608.66
2022-12-25T23:17:31.087Z,96589.91
2022-12-25T23:20:18.614Z,96628.75
2022-12-25T23:23:04.819Z,96605.84
2022-12-25T23:25:50.011Z,96621.34
2022-12-25T23:28:36.583Z,96623.53
2022-12-25T23:31:03.262Z,96628.53
2022-12-25T23:33:29.875Z,96630.84
2022-12-25T23:35:56.654Z,96621.03
2022-12-25T23:38:23.318Z,96630.34
2022-12-25T23:40:50.008Z,96631.34
2022-12-25T23:43:16.730Z,96616.06
2022-12-25T23:45:43.342Z,96601.97
2022-12-25T23:48:09.955Z,96625.59
2022-12-25T23:50:37.542Z,96626.09
2022-12-25T23:53:04.191Z,96612.78
2022-12-25T23:55:30.776Z,96609.66
2022-12-25T23:57:57.317Z,96598.81
